createdAt,value
2019-01-06T00:00:52.345Z,1.3
2019-01-06T00:01:54.473Z,1.3
2019-01-06T00:02:56.607Z,1.2
2019-01-06T00:03:58.735Z,1.2
2019-01-06T00:05:00.860Z,1.2
2019-01-06T00:06:02.991Z,1.2
2019-01-06T00:07:05.135Z,1.2
2019-01-06T00:08:07.606Z,1.2
2019-01-06T00:09:09.734Z,1.2
2019-01-06T00:10:12.155Z,1.2
2019-01-06T00:11:14.297Z,1.2
2019-01-06T00:12:16.521Z,1.2
2019-01-06T00:13:18.655Z,1.1
2019-01-06T00:14:21.181Z,1.1
2019-01-06T00:15:23.303Z,1.1
2019-01-06T00:16:25.421Z,1.2
2019-01-06T00:17:27.561Z,1.2
2019-01-06T00:18:29.706Z,1.2
2019-01-06T00:19:31.865Z,1.1
2019-01-06T00:20:33.995Z,1.1
2019-01-06T00:21:36.168Z,1.1
2019-01-06T00:22:38.301Z,1.1
2019-01-06T00:23:40.459Z,1.1
2019-01-06T00:24:42.608Z,1.1
2019-01-06T00:25:44.715Z,1.1
2019-01-06T00:26:46.866Z,1.1
2019-01-06T00:27:48.975Z,1.1
2019-01-06T00:28:51.107Z,1.1
2019-01-06T00:29:53.251Z,1
2019-01-06T00:30:55.674Z,1
2019-01-06T00:31:57.799Z,1
2019-01-06T00:33:00.320Z,1
2019-01-06T00:34:02.467Z,1
2019-01-06T00:35:14.194Z,1
2019-01-06T00:36:17.137Z,1
2019-01-06T00:37:20.257Z,1
2019-01-06T00:38:24.182Z,1
2019-01-06T00:39:31.907Z,1
2019-01-06T00:40:35.272Z,1
2019-01-06T00:41:38.340Z,1
2019-01-06T00:42:45.826Z,1
2019-01-06T00:43:48.926Z,1
2019-01-06T00:44:52.273Z,1
2019-01-06T00:45:55.091Z,1
2019-01-06T00:46:58.550Z,1.1
2019-01-06T00:48:02.748Z,1.1
2019-01-06T00:49:04.960Z,1.1
2019-01-06T00:50:07.171Z,1.1
2019-01-06T00:51:09.309Z,1.2
2019-01-06T00:52:11.454Z,1.2
2019-01-06T00:53:13.861Z,1.2
2019-01-06T00:54:15.999Z,1.2
2019-01-06T00:55:18.144Z,1.3
2019-01-06T00:56:20.280Z,1.3
2019-01-06T00:57:22.726Z,1.3
2019-01-06T00:58:29.339Z,1.3
2019-01-06T00:59:33.648Z,1.3
2019-01-06T01:00:36.535Z,1.4
2019-01-06T01:01:40.882Z,1.3
2019-01-06T01:02:43.140Z,1.3
2019-01-06T01:03:45.639Z,1.4
2019-01-06T01:04:48.824Z,1.4
2019-01-06T01:05:51.253Z,1.4
2019-01-06T01:06:53.379Z,1.5
2019-01-06T01:07:55.542Z,1.5
2019-01-06T01:08:57.682Z,1.5
2019-01-06T01:09:59.842Z,1.6
2019-01-06T01:11:02.458Z,1.7
2019-01-06T01:12:05.005Z,1.7
2019-01-06T01:13:07.453Z,1.7
2019-01-06T01:14:09.600Z,1.7
2019-01-06T01:15:11.759Z,1.7
2019-01-06T01:16:13.906Z,1.7
2019-01-06T01:17:16.081Z,1.7
2019-01-06T01:18:18.243Z,1.7
2019-01-06T01:19:20.754Z,1.8
2019-01-06T01:20:22.907Z,1.7
2019-01-06T01:21:25.049Z,1.7
2019-01-06T01:22:27.197Z,1.8
2019-01-06T01:23:29.620Z,1.8
2019-01-06T01:24:31.763Z,1.8
2019-01-06T01:25:33.892Z,1.9
2019-01-06T01:26:36.016Z,1.9
2019-01-06T01:27:38.146Z,1.9
2019-01-06T01:28:40.320Z,1.9
2019-01-06T01:29:42.462Z,1.9
2019-01-06T01:30:44.655Z,2
2019-01-06T01:31:46.811Z,2
2019-01-06T01:32:48.950Z,2
2019-01-06T01:33:51.084Z,2
2019-01-06T01:34:53.414Z,2
2019-01-06T01:35:55.545Z,2
2019-01-06T01:36:57.668Z,2
2019-01-06T01:37:59.796Z,2
2019-01-06T01:39:02.431Z,2
2019-01-06T01:40:05.160Z,2
2019-01-06T01:41:07.746Z,2.1
2019-01-06T01:42:10.083Z,2.1
2019-01-06T01:43:12.269Z,2.1
2019-01-06T01:44:14.405Z,2.1
2019-01-06T01:45:16.523Z,2.1
2019-01-06T01:46:18.642Z,2.1
2019-01-06T01:47:20.777Z,2.1
2019-01-06T01:48:22.921Z,2.1
2019-01-06T01:49:25.356Z,2.1
2019-01-06T01:50:27.493Z,2.1
2019-01-06T01:51:29.632Z,2.1
2019-01-06T01:52:31.755Z,2.1
2019-01-06T01:53:34.294Z,2.1
2019-01-06T01:54:36.440Z,2.1
2019-01-06T01:55:38.572Z,2.2
2019-01-06T01:56:40.983Z,2.2
2019-01-06T01:57:43.502Z,2.2
2019-01-06T01:58:45.684Z,2.1
2019-01-06T01:59:47.830Z,2.1
2019-01-06T02:00:50.046Z,2.1
2019-01-06T02:01:52.169Z,2.1
2019-01-06T02:02:54.295Z,2.1
2019-01-06T02:03:56.435Z,2.1
2019-01-06T02:04:58.586Z,2.1
2019-01-06T02:06:00.725Z,2.1
2019-01-06T02:07:02.870Z,2.1
2019-01-06T02:08:05.023Z,2.1
2019-01-06T02:09:07.177Z,2.1
2019-01-06T02:10:09.332Z,2.1
2019-01-06T02:11:11.458Z,2.1
2019-01-06T02:12:13.584Z,2
2019-01-06T02:13:15.727Z,2
2019-01-06T02:14:17.854Z,2
2019-01-06T02:15:19.966Z,2
2019-01-06T02:16:22.108Z,2
2019-01-06T02:17:24.246Z,2
2019-01-06T02:18:26.369Z,2.1
2019-01-06T02:19:28.814Z,2.1
2019-01-06T02:20:31.243Z,2
2019-01-06T02:21:33.662Z,2
2019-01-06T02:22:35.791Z,2
2019-01-06T02:23:37.924Z,2.1
2019-01-06T02:24:40.324Z,2
2019-01-06T02:25:42.459Z,2
2019-01-06T02:26:44.599Z,2.1
2019-01-06T02:27:46.729Z,2
2019-01-06T02:28:48.875Z,2.1
2019-01-06T02:29:51.011Z,2.1
2019-01-06T02:30:53.143Z,2
2019-01-06T02:31:55.291Z,2
2019-01-06T02:32:57.401Z,2
2019-01-06T02:33:59.573Z,2
2019-01-06T02:35:01.715Z,1.9
2019-01-06T02:36:04.257Z,2
2019-01-06T02:37:06.799Z,2
2019-01-06T02:38:09.217Z,2
2019-01-06T02:39:11.326Z,2
2019-01-06T02:40:13.736Z,2
2019-01-06T02:41:15.875Z,2
2019-01-06T02:42:18.069Z,2
2019-01-06T02:43:20.491Z,1.9
2019-01-06T02:44:22.606Z,1.8
2019-01-06T02:45:25.029Z,1.9
2019-01-06T02:46:27.140Z,1.8
2019-01-06T02:47:29.265Z,1.8
2019-01-06T02:48:31.704Z,1.8
2019-01-06T02:49:33.862Z,1.8
2019-01-06T02:50:36.072Z,1.9
2019-01-06T02:51:38.495Z,2
2019-01-06T02:52:40.659Z,2
2019-01-06T02:53:42.809Z,2
2019-01-06T02:54:45.605Z,2
2019-01-06T02:55:48.022Z,2
2019-01-06T02:56:50.448Z,1.9
2019-01-06T02:57:52.606Z,1.9
2019-01-06T02:58:55.024Z,1.8
2019-01-06T02:59:57.251Z,1.9
2019-01-06T03:00:59.385Z,2
2019-01-06T03:02:01.525Z,2
2019-01-06T03:03:03.657Z,2
2019-01-06T03:04:05.789Z,2
2019-01-06T03:05:07.961Z,1.9
2019-01-06T03:06:10.387Z,2
2019-01-06T03:07:12.613Z,1.9
2019-01-06T03:08:14.769Z,1.9
2019-01-06T03:09:17.201Z,1.9
2019-01-06T03:10:19.346Z,1.9
2019-01-06T03:11:21.771Z,1.9
2019-01-06T03:12:23.906Z,1.9
2019-01-06T03:13:26.216Z,1.8
2019-01-06T03:14:28.377Z,1.9
2019-01-06T03:15:30.796Z,1.9
2019-01-06T03:16:33.303Z,1.9
2019-01-06T03:17:35.721Z,1.9
2019-01-06T03:18:37.836Z,2
2019-01-06T03:19:39.972Z,2
2019-01-06T03:20:42.512Z,2
2019-01-06T03:21:44.639Z,2
2019-01-06T03:22:47.359Z,2
2019-01-06T03:23:49.485Z,2
2019-01-06T03:24:51.757Z,2
2019-01-06T03:25:53.897Z,2.1
2019-01-06T03:26:56.030Z,2.1
2019-01-06T03:27:58.182Z,2.1
2019-01-06T03:29:00.322Z,2.2
2019-01-06T03:30:02.813Z,2.1
2019-01-06T03:31:05.716Z,2.2
2019-01-06T03:32:09.530Z,2.2
2019-01-06T03:33:12.289Z,2.2
2019-01-06T03:34:14.432Z,2.2
2019-01-06T03:35:16.606Z,2.2
2019-01-06T03:36:19.123Z,2.1
2019-01-06T03:37:21.658Z,2
2019-01-06T03:38:24.098Z,2
2019-01-06T03:39:26.261Z,2
2019-01-06T03:40:28.669Z,2
2019-01-06T03:41:30.810Z,2
2019-01-06T03:42:33.358Z,2.1
2019-01-06T03:43:35.785Z,2
2019-01-06T03:44:38.035Z,2
2019-01-06T03:45:40.464Z,2
2019-01-06T03:46:42.897Z,2.1
2019-01-06T03:47:45.035Z,2.2
2019-01-06T03:48:47.183Z,2.2
2019-01-06T03:49:49.336Z,2.2
2019-01-06T03:50:52.752Z,2.2
2019-01-06T03:51:54.986Z,2.3
2019-01-06T03:52:57.135Z,2.3
2019-01-06T03:53:59.254Z,2.3
2019-01-06T03:55:01.475Z,2.3
2019-01-06T03:56:03.641Z,2.3
2019-01-06T03:57:06.061Z,2.2
2019-01-06T03:58:08.482Z,2.3
2019-01-06T03:59:11.477Z,2.3
2019-01-06T04:00:13.604Z,2.3
2019-01-06T04:01:16.132Z,2.3
2019-01-06T04:02:18.868Z,2.3
2019-01-06T04:03:21.018Z,2.3
2019-01-06T04:04:23.154Z,2.3
2019-01-06T04:05:25.288Z,2.3
2019-01-06T04:06:27.696Z,2.3
2019-01-06T04:07:30.104Z,2.3
2019-01-06T04:08:32.253Z,2.3
2019-01-06T04:09:34.675Z,2.3
2019-01-06T04:10:37.119Z,2.3
2019-01-06T04:11:39.260Z,2.3
2019-01-06T04:12:41.726Z,2.3
2019-01-06T04:13:44.173Z,2.3
2019-01-06T04:14:46.938Z,2.3
2019-01-06T04:15:49.679Z,2.3
2019-01-06T04:16:51.812Z,2.3
2019-01-06T04:17:53.951Z,2.2
2019-01-06T04:18:56.101Z,2.2
2019-01-06T04:19:58.252Z,2.1
2019-01-06T04:21:00.868Z,2.1
2019-01-06T04:22:03.027Z,2.2
2019-01-06T04:23:05.158Z,2.2
2019-01-06T04:24:07.287Z,2.3
2019-01-06T04:25:09.820Z,2.3
2019-01-06T04:26:11.958Z,2.4
2019-01-06T04:27:14.085Z,2.3
2019-01-06T04:28:16.246Z,2.3
2019-01-06T04:29:18.362Z,2.4
2019-01-06T04:30:20.506Z,2.4
2019-01-06T04:31:22.938Z,2.4
2019-01-06T04:32:25.365Z,2.4
2019-01-06T04:33:27.529Z,2.4
2019-01-06T04:34:29.682Z,2.4
2019-01-06T04:35:31.820Z,2.4
2019-01-06T04:36:33.967Z,2.4
2019-01-06T04:37:36.123Z,2.4
2019-01-06T04:38:38.321Z,2.3
2019-01-06T04:39:40.526Z,2.3
2019-01-06T04:40:42.675Z,2.2
2019-01-06T04:41:44.892Z,2.1
2019-01-06T04:42:47.334Z,2.2
2019-01-06T04:43:49.467Z,2.2
2019-01-06T04:44:51.936Z,2.2
2019-01-06T04:45:54.353Z,2.2
2019-01-06T04:46:56.895Z,2
2019-01-06T04:47:59.035Z,2.1
2019-01-06T04:49:01.149Z,2.1
2019-01-06T04:50:03.946Z,2.1
2019-01-06T04:51:06.428Z,2
2019-01-06T04:52:08.949Z,2.1
2019-01-06T04:53:11.088Z,2.1
2019-01-06T04:54:13.623Z,2
2019-01-06T04:55:15.770Z,2
2019-01-06T04:56:17.911Z,2.1
2019-01-06T04:57:20.068Z,2.1
2019-01-06T04:58:22.195Z,2
2019-01-06T04:59:24.332Z,2
2019-01-06T05:00:26.484Z,2
2019-01-06T05:01:28.619Z,2
2019-01-06T05:02:30.762Z,2
2019-01-06T05:03:32.917Z,2
2019-01-06T05:04:35.056Z,1.9
2019-01-06T05:05:37.270Z,1.9
2019-01-06T05:06:39.451Z,2
2019-01-06T05:07:41.670Z,2
2019-01-06T05:08:44.110Z,2
2019-01-06T05:09:46.210Z,2
2019-01-06T05:10:48.639Z,1.9
2019-01-06T05:11:50.772Z,1.9
2019-01-06T05:12:52.918Z,1.9
2019-01-06T05:13:55.438Z,1.8
2019-01-06T05:14:57.579Z,1.8
2019-01-06T05:15:59.713Z,1.7
2019-01-06T05:17:02.565Z,1.8
2019-01-06T05:18:04.990Z,1.7
2019-01-06T05:19:07.128Z,1.7
2019-01-06T05:20:09.288Z,1.6
2019-01-06T05:21:11.436Z,1.6
2019-01-06T05:22:13.584Z,1.6
2019-01-06T05:23:16.336Z,1.6
2019-01-06T05:24:19.073Z,1.6
2019-01-06T05:25:21.195Z,1.6
2019-01-06T05:26:23.709Z,1.7
2019-01-06T05:27:25.849Z,1.6
2019-01-06T05:28:27.997Z,1.7
2019-01-06T05:29:30.189Z,1.7
2019-01-06T05:30:32.635Z,1.6
2019-01-06T05:31:34.774Z,1.6
2019-01-06T05:32:37.172Z,1.6
2019-01-06T05:33:39.305Z,1.6
2019-01-06T05:34:41.448Z,1.6
2019-01-06T05:35:43.869Z,1.6
2019-01-06T05:36:46.013Z,1.5
2019-01-06T05:37:48.157Z,1.6
2019-01-06T05:38:50.689Z,1.6
2019-01-06T05:39:52.823Z,1.7
2019-01-06T05:40:54.964Z,1.6
2019-01-06T05:41:57.107Z,1.7
2019-01-06T05:42:59.244Z,1.7
2019-01-06T05:44:01.688Z,1.8
2019-01-06T05:45:03.836Z,1.8
2019-01-06T05:46:06.768Z,1.8
2019-01-06T05:47:08.905Z,1.9
2019-01-06T05:48:11.050Z,1.9
2019-01-06T05:49:13.194Z,1.9
2019-01-06T05:50:15.335Z,1.9
2019-01-06T05:51:17.456Z,1.9
2019-01-06T05:52:19.552Z,1.9
2019-01-06T05:53:21.693Z,1.8
2019-01-06T05:54:23.834Z,1.8
2019-01-06T05:55:26.236Z,1.9
2019-01-06T05:56:28.383Z,1.9
2019-01-06T05:57:30.961Z,1.9
2019-01-06T05:58:33.099Z,1.9
2019-01-06T05:59:35.806Z,1.9
2019-01-06T06:00:37.929Z,1.8
2019-01-06T06:01:40.336Z,1.8
2019-01-06T06:02:42.466Z,1.8
2019-01-06T06:03:44.610Z,1.9
2019-01-06T06:04:46.739Z,1.9
2019-01-06T06:05:49.264Z,1.9
2019-01-06T06:06:51.392Z,1.9
2019-01-06T06:07:53.522Z,2
2019-01-06T06:08:56.030Z,2
2019-01-06T06:09:58.156Z,2
2019-01-06T06:11:00.304Z,2
2019-01-06T06:12:02.439Z,1.9
2019-01-06T06:13:04.559Z,2
2019-01-06T06:14:06.681Z,1.9
2019-01-06T06:15:08.802Z,2
2019-01-06T06:16:10.954Z,2
2019-01-06T06:17:13.107Z,2
2019-01-06T06:18:15.242Z,2
2019-01-06T06:19:17.368Z,2
2019-01-06T06:20:19.493Z,2
2019-01-06T06:21:21.624Z,2.1
2019-01-06T06:22:23.732Z,2
2019-01-06T06:23:25.861Z,2.1
2019-01-06T06:24:28.017Z,2.1
2019-01-06T06:25:30.448Z,2.1
2019-01-06T06:26:32.868Z,2.1
2019-01-06T06:27:34.989Z,2
2019-01-06T06:28:37.114Z,2
2019-01-06T06:29:39.251Z,2
2019-01-06T06:30:41.375Z,2.1
2019-01-06T06:31:43.524Z,2.2
2019-01-06T06:32:45.674Z,2.2
2019-01-06T06:33:47.794Z,2.2
2019-01-06T06:34:50.225Z,2.2
2019-01-06T06:35:52.358Z,2.1
2019-01-06T06:36:55.147Z,2.1
2019-01-06T06:37:57.281Z,2.1
2019-01-06T06:38:59.408Z,2.1
2019-01-06T06:40:01.541Z,2.1
2019-01-06T06:41:03.966Z,2.1
2019-01-06T06:42:06.501Z,2.1
2019-01-06T06:43:08.626Z,2.1
2019-01-06T06:44:10.772Z,2.1
2019-01-06T06:45:13.456Z,2.1
2019-01-06T06:46:15.604Z,2.1
2019-01-06T06:47:17.735Z,2.2
2019-01-06T06:48:19.872Z,2.2
2019-01-06T06:49:22.073Z,2.3
2019-01-06T06:50:24.294Z,2.3
2019-01-06T06:51:26.431Z,2.3
2019-01-06T06:52:28.600Z,2.3
2019-01-06T06:53:30.756Z,2.3
2019-01-06T06:54:32.900Z,2.3
2019-01-06T06:55:35.061Z,2.3
2019-01-06T06:56:37.475Z,2.3
2019-01-06T06:57:39.604Z,2.3
2019-01-06T06:58:42.005Z,2.3
2019-01-06T06:59:44.124Z,2.3
2019-01-06T07:00:46.240Z,2.3
2019-01-06T07:01:48.382Z,2.3
2019-01-06T07:02:50.518Z,2.3
2019-01-06T07:03:52.643Z,2.3
2019-01-06T07:04:54.860Z,2.3
2019-01-06T07:05:56.990Z,2.3
2019-01-06T07:06:59.106Z,2.3
2019-01-06T07:08:01.242Z,2.3
2019-01-06T07:09:03.381Z,2.4
2019-01-06T07:10:05.545Z,2.4
2019-01-06T07:11:07.975Z,2.4
2019-01-06T07:12:10.106Z,2.4
2019-01-06T07:13:12.623Z,2.4
2019-01-06T07:14:14.789Z,2.4
2019-01-06T07:15:16.921Z,2.4
2019-01-06T07:16:19.053Z,2.4
2019-01-06T07:17:21.204Z,2.5
2019-01-06T07:18:23.451Z,2.4
2019-01-06T07:19:26.042Z,2.4
2019-01-06T07:20:28.167Z,2.4
2019-01-06T07:21:30.690Z,2.3
2019-01-06T07:22:32.856Z,2.4
2019-01-06T07:23:35.003Z,2.4
2019-01-06T07:24:37.140Z,2.4
2019-01-06T07:25:39.284Z,2.4
2019-01-06T07:26:41.399Z,2.4
2019-01-06T07:27:43.538Z,2.4
2019-01-06T07:28:46.057Z,2.4
2019-01-06T07:29:48.500Z,2.4
2019-01-06T07:30:51.033Z,2.3
2019-01-06T07:31:53.172Z,2.3
2019-01-06T07:32:55.315Z,2.3
2019-01-06T07:33:57.447Z,2.3
2019-01-06T07:34:59.579Z,2.4
2019-01-06T07:36:02.180Z,2.5
2019-01-06T07:37:04.327Z,2.5
2019-01-06T07:38:06.498Z,2.5
2019-01-06T07:39:08.627Z,2.4
2019-01-06T07:40:12.707Z,2.4
2019-01-06T07:41:14.833Z,2.4
2019-01-06T07:42:16.974Z,2.3
2019-01-06T07:43:19.118Z,2.4
2019-01-06T07:44:21.273Z,2.4
2019-01-06T07:45:23.642Z,2.5
2019-01-06T07:46:26.408Z,2.5
2019-01-06T07:47:28.629Z,2.5
2019-01-06T07:48:30.826Z,2.5
2019-01-06T07:49:33.118Z,2.5
2019-01-06T07:50:35.561Z,2.6
2019-01-06T07:51:39.082Z,2.6
2019-01-06T07:52:41.208Z,2.6
2019-01-06T07:53:43.341Z,2.5
2019-01-06T07:54:45.486Z,2.6
2019-01-06T07:55:47.617Z,2.6
2019-01-06T07:56:49.783Z,2.6
2019-01-06T07:57:52.235Z,2.6
2019-01-06T07:58:54.759Z,2.6
2019-01-06T07:59:57.290Z,2.6
2019-01-06T08:00:59.439Z,2.7
2019-01-06T08:02:01.563Z,2.6
2019-01-06T08:03:04.048Z,2.7
2019-01-06T08:04:07.162Z,2.7
2019-01-06T08:05:09.718Z,2.7
2019-01-06T08:06:13.017Z,2.7
2019-01-06T08:07:17.412Z,2.7
2019-01-06T08:08:23.784Z,2.7
2019-01-06T08:09:26.284Z,2.7
2019-01-06T08:10:28.419Z,2.7
2019-01-06T08:11:30.566Z,2.7
2019-01-06T08:12:32.730Z,2.7
2019-01-06T08:13:35.190Z,2.7
2019-01-06T08:14:37.325Z,2.7
2019-01-06T08:15:39.442Z,2.8
2019-01-06T08:16:41.563Z,2.8
2019-01-06T08:17:43.729Z,2.8
2019-01-06T08:18:45.872Z,2.8
2019-01-06T08:19:48.017Z,2.8
2019-01-06T08:20:50.143Z,2.8
2019-01-06T08:21:52.670Z,2.8
2019-01-06T08:22:55.118Z,2.8
2019-01-06T08:23:57.236Z,2.8
2019-01-06T08:24:59.382Z,2.9
2019-01-06T08:26:01.512Z,2.9
2019-01-06T08:27:03.635Z,2.9
2019-01-06T08:28:05.756Z,2.9
2019-01-06T08:29:07.993Z,2.8
2019-01-06T08:30:10.139Z,2.8
2019-01-06T08:31:12.270Z,2.9
2019-01-06T08:32:14.703Z,2.9
2019-01-06T08:33:16.837Z,2.8
2019-01-06T08:34:18.985Z,2.9
2019-01-06T08:35:21.127Z,2.9
2019-01-06T08:36:23.649Z,2.9
2019-01-06T08:37:25.764Z,2.9
2019-01-06T08:38:28.282Z,2.9
2019-01-06T08:39:30.416Z,2.7
2019-01-06T08:40:32.565Z,2.7
2019-01-06T08:41:34.734Z,2.7
2019-01-06T08:42:36.861Z,2.7
2019-01-06T08:43:39.398Z,2.7
2019-01-06T08:44:41.534Z,2.8
2019-01-06T08:45:43.698Z,2.8
2019-01-06T08:46:45.831Z,2.8
2019-01-06T08:47:47.967Z,2.8
2019-01-06T08:48:50.112Z,2.8
2019-01-06T08:49:52.248Z,2.8
2019-01-06T08:51:26.421Z,2.8
2019-01-06T08:52:28.750Z,2.7
2019-01-06T08:53:30.777Z,2.7
2019-01-06T08:54:32.826Z,2.8
2019-01-06T08:55:34.862Z,2.7
2019-01-06T08:56:36.917Z,2.8
2019-01-06T08:57:38.972Z,2.8
2019-01-06T08:58:41.071Z,2.8
2019-01-06T08:59:43.510Z,2.7
2019-01-06T09:00:45.571Z,2.8
2019-01-06T09:01:48.011Z,2.8
2019-01-06T09:02:54.845Z,2.7
2019-01-06T09:04:01.550Z,2.8
2019-01-06T09:05:16.074Z,2.8
2019-01-06T09:06:18.332Z,2.8
2019-01-06T09:07:20.389Z,2.8
2019-01-06T09:08:22.447Z,2.7
2019-01-06T09:09:25.042Z,2.7
2019-01-06T09:10:27.092Z,2.7
2019-01-06T09:11:29.140Z,2.7
2019-01-06T09:12:31.486Z,2.7
2019-01-06T09:13:33.930Z,2.7
2019-01-06T09:14:36.765Z,2.6
2019-01-06T09:15:39.187Z,2.7
2019-01-06T09:16:41.244Z,2.7
2019-01-06T09:17:43.297Z,2.7
2019-01-06T09:18:45.616Z,2.7
2019-01-06T09:19:51.965Z,2.7
2019-01-06T09:20:54.308Z,2.7
2019-01-06T09:21:56.344Z,2.7
2019-01-06T09:22:58.398Z,2.7
2019-01-06T09:24:00.456Z,2.8
2019-01-06T09:25:02.809Z,2.8
2019-01-06T09:26:04.845Z,2.8
2019-01-06T09:27:06.896Z,2.8
2019-01-06T09:28:08.947Z,2.8
2019-01-06T09:29:10.986Z,2.8
2019-01-06T09:30:13.023Z,2.8
2019-01-06T09:31:15.370Z,2.7
2019-01-06T09:32:17.688Z,2.8
2019-01-06T09:33:20.089Z,2.7
2019-01-06T09:34:22.146Z,2.8
2019-01-06T09:35:24.472Z,2.9
2019-01-06T09:36:26.516Z,2.9
2019-01-06T09:37:28.565Z,2.8
2019-01-06T09:38:30.701Z,2.8
2019-01-06T09:39:33.108Z,2.8
2019-01-06T09:40:35.140Z,2.8
2019-01-06T09:41:37.172Z,2.8
2019-01-06T09:42:39.238Z,2.8
2019-01-06T09:43:41.277Z,2.8
2019-01-06T09:44:43.634Z,2.8
2019-01-06T09:45:45.688Z,2.9
2019-01-06T09:46:48.177Z,2.9
2019-01-06T09:47:50.230Z,2.9
2019-01-06T09:48:52.548Z,2.9
2019-01-06T09:49:54.582Z,2.9
2019-01-06T09:50:56.611Z,2.9
2019-01-06T09:51:58.646Z,2.9
2019-01-06T09:53:00.689Z,2.9
2019-01-06T09:54:03.017Z,2.9
2019-01-06T09:55:05.136Z,2.9
2019-01-06T09:56:07.279Z,2.9
2019-01-06T09:57:09.737Z,3
2019-01-06T09:58:11.806Z,3
2019-01-06T09:59:16.018Z,3
2019-01-06T10:00:18.542Z,3
2019-01-06T10:01:20.576Z,3
2019-01-06T10:02:22.914Z,3
2019-01-06T10:03:24.967Z,3
2019-01-06T10:04:35.953Z,3
2019-01-06T10:05:38.099Z,3
2019-01-06T10:06:40.142Z,3
2019-01-06T10:07:42.179Z,3
2019-01-06T10:08:44.215Z,3
2019-01-06T10:09:46.833Z,3
2019-01-06T10:10:48.870Z,3
2019-01-06T10:11:50.923Z,3.1
2019-01-06T10:12:52.976Z,3
2019-01-06T10:13:55.250Z,3.1
2019-01-06T10:14:57.308Z,3.1
2019-01-06T10:15:59.336Z,3.1
2019-01-06T10:17:01.396Z,3.1
2019-01-06T10:18:03.451Z,3.1
2019-01-06T10:19:05.498Z,3
2019-01-06T10:20:07.540Z,3
2019-01-06T10:21:09.691Z,3
2019-01-06T10:22:11.769Z,3
2019-01-06T10:23:14.489Z,2.9
2019-01-06T10:24:16.557Z,3
2019-01-06T10:25:18.592Z,3
2019-01-06T10:26:20.634Z,3
2019-01-06T10:27:22.715Z,3
2019-01-06T10:28:24.777Z,3
2019-01-06T10:29:26.858Z,3
2019-01-06T10:30:29.213Z,3
2019-01-06T10:31:31.240Z,3
2019-01-06T10:32:33.490Z,3
2019-01-06T10:33:37.488Z,3
2019-01-06T10:34:39.541Z,3
2019-01-06T10:35:41.704Z,3.1
2019-01-06T10:36:43.838Z,3
2019-01-06T10:37:45.867Z,3
2019-01-06T10:38:47.948Z,3
2019-01-06T10:39:49.993Z,3.1
2019-01-06T10:40:52.079Z,3
2019-01-06T10:41:54.133Z,3
2019-01-06T10:42:56.200Z,3
2019-01-06T10:43:58.298Z,3.1
2019-01-06T10:45:00.412Z,3.1
2019-01-06T10:46:02.521Z,3.2
2019-01-06T10:47:05.156Z,3.2
2019-01-06T10:48:07.222Z,3.1
2019-01-06T10:49:09.578Z,3.2
2019-01-06T10:50:11.629Z,3.1
2019-01-06T10:51:13.690Z,3.1
2019-01-06T10:52:15.759Z,3.2
2019-01-06T10:53:17.812Z,3.2
2019-01-06T10:54:19.862Z,3.3
2019-01-06T10:55:21.903Z,3.2
2019-01-06T10:56:23.969Z,3.2
2019-01-06T10:57:26.003Z,3.2
2019-01-06T10:58:28.059Z,3.2
2019-01-06T10:59:30.115Z,3.3
2019-01-06T11:00:32.170Z,3.3
2019-01-06T11:01:34.229Z,3.3
2019-01-06T11:02:36.274Z,3.4
2019-01-06T11:03:38.348Z,3.4
2019-01-06T11:04:40.792Z,3.4
2019-01-06T11:05:43.000Z,3.4
2019-01-06T11:06:45.932Z,3.4
2019-01-06T11:07:47.982Z,3.4
2019-01-06T11:08:50.377Z,3.4
2019-01-06T11:09:52.415Z,3.4
2019-01-06T11:10:54.494Z,3.4
2019-01-06T11:11:56.544Z,3.5
2019-01-06T11:12:58.603Z,3.5
2019-01-06T11:14:00.661Z,3.4
2019-01-06T11:15:02.722Z,3.4
2019-01-06T11:16:04.787Z,3.3
2019-01-06T11:17:06.827Z,3.3
2019-01-06T11:18:08.884Z,3.3
2019-01-06T11:19:10.972Z,3.3
2019-01-06T11:20:13.032Z,3.4
2019-01-06T11:21:15.069Z,3.4
2019-01-06T11:22:17.105Z,3.4
2019-01-06T11:23:19.153Z,3.4
2019-01-06T11:24:21.205Z,3.5
2019-01-06T11:25:23.260Z,3.4
2019-01-06T11:26:25.418Z,3.4
2019-01-06T11:27:27.683Z,3.5
2019-01-06T11:28:30.217Z,3.5
2019-01-06T11:29:32.547Z,3.5
2019-01-06T11:30:35.051Z,3.5
2019-01-06T11:31:37.459Z,3.4
2019-01-06T11:32:39.504Z,3.5
2019-01-06T11:33:41.570Z,3.5
2019-01-06T11:34:43.615Z,3.5
2019-01-06T11:35:45.656Z,3.5
2019-01-06T11:36:47.698Z,3.6
2019-01-06T11:37:49.761Z,3.5
2019-01-06T11:38:51.807Z,3.5
2019-01-06T11:39:53.844Z,3.6
2019-01-06T11:40:56.465Z,3.5
2019-01-06T11:41:58.510Z,3.5
2019-01-06T11:43:00.528Z,3.6
2019-01-06T11:44:02.574Z,3.5
2019-01-06T11:45:04.900Z,3.5
2019-01-06T11:46:06.943Z,3.5
2019-01-06T11:47:09.000Z,3.5
2019-01-06T11:48:11.190Z,3.5
2019-01-06T11:49:13.277Z,3.5
2019-01-06T11:50:15.315Z,3.5
2019-01-06T11:51:17.385Z,3.4
2019-01-06T11:52:19.445Z,3.4
2019-01-06T11:53:21.803Z,3.5
2019-01-06T11:54:23.833Z,3.4
2019-01-06T11:55:25.881Z,3.5
2019-01-06T11:56:27.939Z,3.5
2019-01-06T11:57:30.264Z,3.5
2019-01-06T11:58:32.300Z,3.5
2019-01-06T11:59:34.341Z,3.6
2019-01-06T12:00:36.437Z,3.7
2019-01-06T12:01:38.753Z,3.7
2019-01-06T12:02:40.797Z,3.6
2019-01-06T12:03:42.843Z,3.6
2019-01-06T12:04:44.894Z,3.6
2019-01-06T12:05:46.941Z,3.6
2019-01-06T12:06:48.974Z,3.7
2019-01-06T12:07:51.040Z,3.6
2019-01-06T12:08:53.067Z,3.5
2019-01-06T12:09:55.125Z,3.6
2019-01-06T12:10:57.456Z,3.6
2019-01-06T12:11:59.494Z,3.6
2019-01-06T12:13:01.537Z,3.6
2019-01-06T12:14:03.595Z,3.6
2019-01-06T12:15:05.928Z,3.5
2019-01-06T12:16:07.973Z,3.6
2019-01-06T12:17:10.013Z,3.7
2019-01-06T12:18:12.359Z,3.7
2019-01-06T12:19:14.416Z,3.6
2019-01-06T12:20:16.465Z,3.6
2019-01-06T12:21:18.520Z,3.6
2019-01-06T12:22:20.587Z,3.6
2019-01-06T12:23:22.638Z,3.6
2019-01-06T12:24:24.975Z,3.5
2019-01-06T12:25:27.013Z,3.6
2019-01-06T12:27:13.901Z,3.6
2019-01-06T12:28:15.940Z,3.5
2019-01-06T12:29:17.962Z,3.5
2019-01-06T12:30:20.395Z,3.5
2019-01-06T12:31:22.425Z,3.6
2019-01-06T12:32:24.466Z,3.6
2019-01-06T12:33:26.508Z,3.6
2019-01-06T12:34:28.547Z,3.6
2019-01-06T12:35:30.593Z,3.6
2019-01-06T12:36:32.639Z,3.6
2019-01-06T12:37:34.671Z,3.6
2019-01-06T12:38:36.729Z,3.6
2019-01-06T12:39:38.804Z,3.6
2019-01-06T12:40:41.140Z,3.6
2019-01-06T12:41:43.184Z,3.6
2019-01-06T12:42:45.601Z,3.6
2019-01-06T12:43:47.729Z,3.6
2019-01-06T12:44:49.772Z,3.6
2019-01-06T12:45:52.214Z,3.5
2019-01-06T12:46:54.318Z,3.6
2019-01-06T12:47:56.366Z,3.7
2019-01-06T12:48:58.402Z,3.6
2019-01-06T12:50:00.580Z,3.6
2019-01-06T12:51:02.996Z,3.5
2019-01-06T12:52:05.331Z,3.5
2019-01-06T12:53:07.760Z,3.5
2019-01-06T12:54:09.887Z,3.5
2019-01-06T12:55:11.923Z,3.6
2019-01-06T12:56:13.962Z,3.6
2019-01-06T12:57:15.996Z,3.6
2019-01-06T12:58:18.038Z,3.6
2019-01-06T12:59:20.076Z,3.5
2019-01-06T13:00:22.124Z,3.5
2019-01-06T13:01:24.172Z,3.5
2019-01-06T13:02:26.527Z,3.5
2019-01-06T13:03:28.594Z,3.5
2019-01-06T13:04:30.656Z,3.5
2019-01-06T13:05:32.710Z,3.5
2019-01-06T13:06:35.036Z,3.4
2019-01-06T13:07:37.467Z,3.5
2019-01-06T13:08:39.488Z,3.5
2019-01-06T13:09:41.916Z,3.6
2019-01-06T13:10:43.987Z,3.5
2019-01-06T13:11:46.338Z,3.3
2019-01-06T13:12:48.403Z,3.5
2019-01-06T13:13:50.442Z,3.5
2019-01-06T13:14:52.873Z,3.5
2019-01-06T13:15:54.967Z,3.5
2019-01-06T13:16:57.020Z,3.6
2019-01-06T13:17:59.061Z,3.7
2019-01-06T13:19:01.413Z,3.8
2019-01-06T13:20:03.449Z,3.7
2019-01-06T13:21:05.782Z,3.6
2019-01-06T13:22:07.827Z,3.6
2019-01-06T13:23:10.570Z,3.7
2019-01-06T13:24:12.964Z,3.7
2019-01-06T13:25:15.030Z,3.7
2019-01-06T13:26:17.109Z,3.7
2019-01-06T13:27:19.251Z,3.7
2019-01-06T13:28:21.705Z,3.6
2019-01-06T13:29:24.047Z,3.7
2019-01-06T13:30:26.098Z,3.7
2019-01-06T13:31:28.533Z,3.8
2019-01-06T13:32:30.588Z,3.9
2019-01-06T13:33:32.640Z,3.9
2019-01-06T13:34:34.701Z,3.8
2019-01-06T13:35:37.323Z,3.8
2019-01-06T13:36:39.433Z,3.8
2019-01-06T13:37:41.533Z,3.8
2019-01-06T13:38:43.591Z,3.8
2019-01-06T13:39:45.978Z,3.8
2019-01-06T13:40:48.038Z,3.8
2019-01-06T13:41:50.090Z,3.8
2019-01-06T13:42:52.158Z,3.8
2019-01-06T13:43:54.191Z,3.8
2019-01-06T13:44:56.230Z,3.8
2019-01-06T13:45:58.321Z,3.8
2019-01-06T13:47:00.388Z,3.9
2019-01-06T13:48:02.557Z,3.9
2019-01-06T13:49:04.642Z,3.9
2019-01-06T13:50:06.690Z,3.9
2019-01-06T13:51:08.735Z,3.8
2019-01-06T13:52:11.060Z,3.8
2019-01-06T13:53:13.116Z,3.8
2019-01-06T13:54:15.446Z,3.8
2019-01-06T13:55:17.764Z,3.8
2019-01-06T13:56:19.807Z,3.8
2019-01-06T13:57:21.865Z,3.7
2019-01-06T13:58:23.891Z,3.7
2019-01-06T13:59:25.940Z,3.7
2019-01-06T14:00:28.476Z,3.6
2019-01-06T14:01:30.541Z,3.7
2019-01-06T14:02:32.644Z,3.8
2019-01-06T14:03:34.685Z,3.8
2019-01-06T14:04:37.026Z,3.8
2019-01-06T14:05:39.158Z,3.8
2019-01-06T14:06:41.210Z,3.8
2019-01-06T14:07:43.388Z,3.6
2019-01-06T14:08:45.720Z,3.5
2019-01-06T14:09:47.788Z,3.5
2019-01-06T14:10:50.210Z,3.5
2019-01-06T14:11:52.258Z,3.6
2019-01-06T14:12:54.652Z,3.7
2019-01-06T14:13:56.711Z,3.7
2019-01-06T14:14:58.814Z,3.7
2019-01-06T14:16:00.862Z,3.6
2019-01-06T14:17:02.980Z,3.5
2019-01-06T14:18:05.023Z,3.5
2019-01-06T14:19:07.046Z,3.5
2019-01-06T14:20:17.661Z,3.5
2019-01-06T14:21:19.738Z,3.6
2019-01-06T14:22:21.790Z,3.6
2019-01-06T14:23:23.873Z,3.6
2019-01-06T14:24:25.978Z,3.6
2019-01-06T14:25:28.012Z,3.5
2019-01-06T14:26:30.080Z,3.6
2019-01-06T14:27:32.123Z,3.6
2019-01-06T14:28:34.184Z,3.5
2019-01-06T14:29:36.242Z,3.5